sensor_id;sensor_type;location;lat;lon;timestamp;pressure;altitude;pressure_sealevel;temperature;humidity
75460;BME280;64039;53.060;9.342;2023-11-21T00:02:02;100544.47;;;8.12;100.00
75460;BME280;64039;53.060;9.342;2023-11-21T00:04:27;100539.88;;;8.02;100.00
75460;BME280;64039;53.060;9.342;2023-11-21T00:06:53;100544.41;;;8.09;100.00
75460;BME280;64039;53.060;9.342;2023-11-21T00:09:19;100541.47;;;7.97;100.00
75460;BME280;64039;53.060;9.342;2023-11-21T00:11:45;100552.72;;;7.97;100.00
75460;BME280;64039;53.060;9.342;2023-11-21T00:14:11;100553.91;;;8.10;100.00
75460;BME280;64039;53.060;9.342;2023-11-21T00:16:36;100553.06;;;8.10;100.00
75460;BME280;64039;53.060;9.342;2023-11-21T00:19:02;100554.03;;;8.15;100.00
75460;BME280;64039;53.060;9.342;2023-11-21T00:21:27;100546.56;;;8.26;100.00
75460;BME280;64039;53.060;9.342;2023-11-21T00:23:53;100549.78;;;8.17;100.00
75460;BME280;64039;53.060;9.342;2023-11-21T00:26:18;100549.78;;;8.17;100.00
75460;BME280;64039;53.060;9.342;2023-11-21T00:28:44;100552.34;;;8.15;100.00
75460;BME280;64039;53.060;9.342;2023-11-21T00:31:10;100554.03;;;8.15;100.00
75460;BME280;64039;53.060;9.342;2023-11-21T00:33:36;100560.44;;;8.28;100.00
75460;BME280;64039;53.060;9.342;2023-11-21T00:36:01;100551.53;;;8.18;100.00
75460;BME280;64039;53.060;9.342;2023-11-21T00:38:27;100546.34;;;8.18;100.00
75460;BME280;64039;53.060;9.342;2023-11-21T00:40:53;100554.56;;;8.01;100.00
75460;BME280;64039;53.060;9.342;2023-11-21T00:43:22;100558.00;;;8.02;100.00
75460;BME280;64039;53.060;9.342;2023-11-21T00:45:48;100558.94;;;8.04;100.00
75460;BME280;64039;53.060;9.342;2023-11-21T00:48:14;100551.38;;;8.12;100.00
75460;BME280;64039;53.060;9.342;2023-11-21T00:50:40;100552.34;;;8.15;100.00
75460;BME280;64039;53.060;9.342;2023-11-21T00:53:06;100556.03;;;8.24;100.00
75460;BME280;64039;53.060;9.342;2023-11-21T00:55:33;100564.28;;;8.10;100.00
75460;BME280;64039;53.060;9.342;2023-11-21T00:57:58;100573.69;;;8.07;100.00
75460;BME280;64039;53.060;9.342;2023-11-21T01:00:25;100577.06;;;8.02;100.00
75460;BME280;64039;53.060;9.342;2023-11-21T01:02:50;100581.34;;;8.02;100.00
75460;BME280;64039;53.060;9.342;2023-11-21T01:05:16;100586.53;;;8.02;100.00
75460;BME280;64039;53.060;9.342;2023-11-21T01:07:41;100592.56;;;8.01;100.00
75460;BME280;64039;53.060;9.342;2023-11-21T01:10:07;100585.69;;;8.03;100.00
75460;BME280;64039;53.060;9.342;2023-11-21T01:12:36;100596.00;;;8.00;100.00
75460;BME280;64039;53.060;9.342;2023-11-21T01:15:04;100594.25;;;7.99;100.00
75460;BME280;64039;53.060;9.342;2023-11-21T01:17:32;100603.06;;;8.06;100.00
75460;BME280;64039;53.060;9.342;2023-11-21T01:19:59;100606.53;;;8.06;100.00
75460;BME280;64039;53.060;9.342;2023-11-21T01:22:25;100608.34;;;8.10;100.00
75460;BME280;64039;53.060;9.342;2023-11-21T01:24:52;100603.06;;;8.06;100.00
75460;BME280;64039;53.060;9.342;2023-11-21T01:27:18;100594.38;;;8.03;100.00
75460;BME280;64039;53.060;9.342;2023-11-21T01:29:44;100604.91;;;8.10;100.00
75460;BME280;64039;53.060;9.342;2023-11-21T01:32:10;100601.50;;;8.12;100.00
75460;BME280;64039;53.060;9.342;2023-11-21T01:34:36;100607.59;;;8.13;100.00
75460;BME280;64039;53.060;9.342;2023-11-21T01:37:02;100602.44;;;8.14;100.00
75460;BME280;64039;53.060;9.342;2023-11-21T01:39:28;100609.44;;;8.18;100.00
75460;BME280;64039;53.060;9.342;2023-11-21T01:41:53;100607.91;;;8.25;100.00
75460;BME280;64039;53.060;9.342;2023-11-21T01:44:19;100610.56;;;8.27;100.00
75460;BME280;64039;53.060;9.342;2023-11-21T01:46:45;100611.66;;;8.35;100.00
75460;BME280;64039;53.060;9.342;2023-11-21T01:49:13;100620.00;;;8.25;100.00
75460;BME280;64039;53.060;9.342;2023-11-21T01:51:45;100614.00;;;8.26;100.00
75460;BME280;64039;53.060;9.342;2023-11-21T01:54:12;100615.69;;;8.25;100.00
75460;BME280;64039;53.060;9.342;2023-11-21T01:56:38;100621.53;;;8.18;100.00
75460;BME280;64039;53.060;9.342;2023-11-21T01:59:04;100616.22;;;8.13;100.00
75460;BME280;64039;53.060;9.342;2023-11-21T02:01:30;100620.81;;;8.22;100.00
75460;BME280;64039;53.060;9.342;2023-11-21T02:03:56;100621.03;;;8.31;100.00
75460;BME280;64039;53.060;9.342;2023-11-21T02:06:21;100628.94;;;8.36;100.00
75460;BME280;64039;53.060;9.342;2023-11-21T02:08:47;100633.28;;;8.37;100.00
75460;BME280;64039;53.060;9.342;2023-11-21T02:11:13;100636.91;;;8.42;100.00
75460;BME280;64039;53.060;9.342;2023-11-21T02:13:39;100638.19;;;8.57;100.00
75460;BME280;64039;53.060;9.342;2023-11-21T02:16:10;100637.97;;;8.49;100.00
75460;BME280;64039;53.060;9.342;2023-11-21T02:18:38;100637.22;;;8.53;100.00
75460;BME280;64039;53.060;9.342;2023-11-21T02:21:04;100646.94;;;8.60;100.00
75460;BME280;64039;53.060;9.342;2023-11-21T02:23:30;100658.25;;;8.64;100.00
75460;BME280;64039;53.060;9.342;2023-11-21T02:25:55;100653.84;;;8.60;100.00
75460;BME280;64039;53.060;9.342;2023-11-21T02:28:21;100660.03;;;8.65;100.00
75460;BME280;64039;53.060;9.342;2023-11-21T02:30:51;100661.53;;;8.57;100.00
75460;BME280;64039;53.060;9.342;2023-11-21T02:33:21;100672.16;;;8.66;100.00
75460;BME280;64039;53.060;9.342;2023-11-21T02:35:47;100670.94;;;8.53;100.00
75460;BME280;64039;53.060;9.342;2023-11-21T02:38:13;100673.56;;;8.55;100.00
75460;BME280;64039;53.060;9.342;2023-11-21T02:40:39;100676.13;;;8.53;100.00
75460;BME280;64039;53.060;9.342;2023-11-21T02:43:04;100680.03;;;8.39;100.00
75460;BME280;64039;53.060;9.342;2023-11-21T02:45:31;100687.34;;;8.52;100.00
75460;BME280;64039;53.060;9.342;2023-11-21T02:47:57;100682.16;;;8.52;100.00
75460;BME280;64039;53.060;9.342;2023-11-21T02:50:23;100685.50;;;8.48;100.00
75460;BME280;64039;53.060;9.342;2023-11-21T02:52:49;100687.81;;;8.39;100.00
75460;BME280;64039;53.060;9.342;2023-11-21T02:55:15;100695.53;;;8.37;100.00
75460;BME280;64039;53.060;9.342;2023-11-21T02:57:40;100692.25;;;8.43;100.00
75460;BME280;64039;53.060;9.342;2023-11-21T03:00:06;100704.22;;;8.38;100.00
75460;BME280;64039;53.060;9.342;2023-11-21T03:02:35;100698.66;;;8.25;100.00
75460;BME280;64039;53.060;9.342;2023-11-21T03:05:06;100709.56;;;8.13;100.00
75460;BME280;64039;53.060;9.342;2023-11-21T03:07:32;100706.00;;;8.10;100.00
75460;BME280;64039;53.060;9.342;2023-11-21T03:09:57;100711.56;;;7.93;100.00
75460;BME280;64039;53.060;9.342;2023-11-21T03:12:23;100716.06;;;7.99;100.00
75460;BME280;64039;53.060;9.342;2023-11-21T03:14:48;100709.75;;;7.91;100.00
75460;BME280;64039;53.060;9.342;2023-11-21T03:17:13;100717.25;;;7.81;100.00
75460;BME280;64039;53.060;9.342;2023-11-21T03:19:41;100723.09;;;7.74;100.00
75460;BME280;64039;53.060;9.342;2023-11-21T03:22:07;100732.00;;;7.55;100.00
75460;BME280;64039;53.060;9.342;2023-11-21T03:24:32;100742.63;;;7.64;100.00
75460;BME280;64039;53.060;9.342;2023-11-21T03:26:57;100739.75;;;7.55;100.00
75460;BME280;64039;53.060;9.342;2023-11-21T03:29:23;100739.34;;;7.70;100.00
75460;BME280;64039;53.060;9.342;2023-11-21T03:31:49;100745.34;;;7.69;100.00
75460;BME280;64039;53.060;9.342;2023-11-21T03:34:34;100752.44;;;7.75;100.00
75460;BME280;64039;53.060;9.342;2023-11-21T03:37:00;100754.19;;;7.74;100.00
75460;BME280;64039;53.060;9.342;2023-11-21T03:39:25;100751.13;;;7.60;100.00
75460;BME280;64039;53.060;9.342;2023-11-21T03:41:51;100756.84;;;7.50;100.00
75460;BME280;64039;53.060;9.342;2023-11-21T03:44:17;100764.09;;;7.60;100.00
75460;BME280;64039;53.060;9.342;2023-11-21T03:46:43;100764.13;;;7.62;100.00
75460;BME280;64039;53.060;9.342;2023-11-21T03:49:09;100768.78;;;7.45;100.00
75460;BME280;64039;53.060;9.342;2023-11-21T03:51:36;100784.78;;;7.33;100.00
75460;BME280;64039;53.060;9.342;2023-11-21T03:54:02;100784.16;;;7.40;100.00
75460;BME280;64039;53.060;9.342;2023-11-21T03:56:28;100783.06;;;7.33;100.00
75460;BME280;64039;53.060;9.342;2023-11-21T03:58:54;100786.94;;;7.20;100.00
75460;BME280;64039;53.060;9.342;2023-11-21T04:01:22;100790.59;;;7.26;100.00
75460;BME280;64039;53.060;9.342;2023-11-21T04:03:49;100802.91;;;7.33;100.00
75460;BME280;64039;53.060;9.342;2023-11-21T04:06:15;100792.16;;;7.22;100.00
75460;BME280;64039;53.060;9.342;2023-11-21T04:08:40;100805.84;;;7.18;100.00
75460;BME280;64039;53.060;9.342;2023-11-21T04:11:05;100811.59;;;7.09;100.00
75460;BME280;64039;53.060;9.342;2023-11-21T04:13:31;100810.81;;;7.12;100.00
75460;BME280;64039;53.060;9.342;2023-11-21T04:15:56;100824.19;;;7.00;100.00
75460;BME280;64039;53.060;9.342;2023-11-21T04:18:22;100828.84;;;7.10;100.00
75460;BME280;64039;53.060;9.342;2023-11-21T04:20:50;100833.22;;;7.11;100.00
75460;BME280;64039;53.060;9.342;2023-11-21T04:23:15;100837.84;;;7.20;100.00
75460;BME280;64039;53.060;9.342;2023-11-21T04:25:41;100841.78;;;7.10;100.00
75460;BME280;64039;53.060;9.342;2023-11-21T04:28:06;100856.06;;;6.99;100.00
75460;BME280;64039;53.060;9.342;2023-11-21T04:30:32;100854.09;;;6.91;100.00
75460;BME280;64039;53.060;9.342;2023-11-21T04:32:58;100857.53;;;6.92;100.00
75460;BME280;64039;53.060;9.342;2023-11-21T04:35:23;100861.13;;;6.96;100.00
75460;BME280;64039;53.060;9.342;2023-11-21T04:37:49;100859.00;;;7.08;100.00
75460;BME280;64039;53.060;9.342;2023-11-21T04:40:16;100856.75;;;7.17;100.00
75460;BME280;64039;53.060;9.342;2023-11-21T04:42:42;100860.19;;;7.18;100.00
75460;BME280;64039;53.060;9.342;2023-11-21T04:45:08;100860.91;;;7.14;100.00
75460;BME280;64039;53.060;9.342;2023-11-21T04:47:35;100866.44;;;6.99;100.00
75460;BME280;64039;53.060;9.342;2023-11-21T04:50:01;100862.34;;;6.81;100.00
75460;BME280;64039;53.060;9.342;2023-11-21T04:52:26;100870.97;;;6.82;100.00
75460;BME280;64039;53.060;9.342;2023-11-21T04:54:52;100867.69;;;6.86;100.00
75460;BME280;64039;53.060;9.342;2023-11-21T04:57:20;100870.91;;;6.80;100.00
75460;BME280;64039;53.060;9.342;2023-11-21T04:59:46;100880.03;;;6.70;100.00
75460;BME280;64039;53.060;9.342;2023-11-21T05:02:11;100886.72;;;6.65;100.00
75460;BME280;64039;53.060;9.342;2023-11-21T05:04:37;100881.19;;;6.56;100.00
75460;BME280;64039;53.060;9.342;2023-11-21T05:07:03;100881.16;;;6.54;100.00
75460;BME280;64039;53.060;9.342;2023-11-21T05:09:28;100887.78;;;6.48;100.00
75460;BME280;64039;53.060;9.342;2023-11-21T05:11:57;100895.47;;;6.46;100.00
75460;BME280;64039;53.060;9.342;2023-11-21T05:14:22;100902.00;;;6.36;100.00
75460;BME280;64039;53.060;9.342;2023-11-21T05:16:48;100907.88;;;6.11;100.00
75460;BME280;64039;53.060;9.342;2023-11-21T05:19:13;100919.78;;;6.07;100.00
75460;BME280;64039;53.060;9.342;2023-11-21T05:21:39;100931.94;;;6.10;100.00
75460;BME280;64039;53.060;9.342;2023-11-21T05:24:05;100929.38;;;6.10;100.00
75460;BME280;64039;53.060;9.342;2023-11-21T05:26:31;100930.94;;;6.06;100.00
75460;BME280;64039;53.060;9.342;2023-11-21T05:28:56;100941.41;;;6.09;100.00
75460;BME280;64039;53.060;9.342;2023-11-21T05:31:22;100937.69;;;6.03;100.00
75460;BME280;64039;53.060;9.342;2023-11-21T05:33:47;100939.78;;;5.92;100.00
75460;BME280;64039;53.060;9.342;2023-11-21T05:36:14;100939.78;;;6.11;100.00
75460;BME280;64039;53.060;9.342;2023-11-21T05:38:39;100943.44;;;6.17;100.00
75460;BME280;64039;53.060;9.342;2023-11-21T05:41:05;100939.97;;;6.16;100.00
75460;BME280;64039;53.060;9.342;2023-11-21T05:43:30;100948.94;;;6.24;100.00
75460;BME280;64039;53.060;9.342;2023-11-21T05:45:57;100957.06;;;6.34;100.00
75460;BME280;64039;53.060;9.342;2023-11-21T05:48:23;100965.75;;;6.36;100.00
75460;BME280;64039;53.060;9.342;2023-11-21T05:50:49;100969.28;;;6.38;100.00
75460;BME280;64039;53.060;9.342;2023-11-21T05:53:15;100980.44;;;6.37;100.00
75460;BME280;64039;53.060;9.342;2023-11-21T05:55:41;100977.84;;;6.37;100.00
75460;BME280;64039;53.060;9.342;2023-11-21T05:58:07;100978.81;;;6.39;100.00
75460;BME280;64039;53.060;9.342;2023-11-21T06:00:33;100989.72;;;6.32;100.00
75460;BME280;64039;53.060;9.342;2023-11-21T06:02:59;100990.53;;;6.31;100.00
75460;BME280;64039;53.060;9.342;2023-11-21T06:05:25;100993.75;;;6.25;100.00
75460;BME280;64039;53.060;9.342;2023-11-21T06:07:52;100993.75;;;6.25;100.00
75460;BME280;64039;53.060;9.342;2023-11-21T06:10:20;100992.69;;;6.20;100.00
75460;BME280;64039;53.060;9.342;2023-11-21T06:12:46;101002.94;;;6.18;100.00
75460;BME280;64039;53.060;9.342;2023-11-21T06:15:12;101007.84;;;6.12;100.00
75460;BME280;64039;53.060;9.342;2023-11-21T06:17:41;101012.00;;;6.08;100.00
75460;BME280;64039;53.060;9.342;2023-11-21T06:20:09;101017.19;;;6.08;100.00
75460;BME280;64039;53.060;9.342;2023-11-21T06:22:38;101030.16;;;6.10;100.00
75460;BME280;64039;53.060;9.342;2023-11-21T06:25:05;101037.19;;;6.12;100.00
75460;BME280;64039;53.060;9.342;2023-11-21T06:27:40;101037.34;;;5.97;100.00
75460;BME280;64039;53.060;9.342;2023-11-21T06:30:06;101037.66;;;6.04;100.00
75460;BME280;64039;53.060;9.342;2023-11-21T06:32:34;101047.56;;;5.94;100.00
75460;BME280;64039;53.060;9.342;2023-11-21T06:35:01;101050.03;;;5.91;100.00
75460;BME280;64039;53.060;9.342;2023-11-21T06:37:28;101056.00;;;5.90;100.00
75460;BME280;64039;53.060;9.342;2023-11-21T06:39:54;101053.53;;;5.93;100.00
75460;BME280;64039;53.060;9.342;2023-11-21T06:42:20;101063.00;;;5.93;100.00
75460;BME280;64039;53.060;9.342;2023-11-21T06:44:46;101069.63;;;6.06;100.00
75460;BME280;64039;53.060;9.342;2023-11-21T06:47:12;101077.00;;;5.98;100.00
75460;BME280;64039;53.060;9.342;2023-11-21T06:49:37;101074.28;;;5.95;100.00
75460;BME280;64039;53.060;9.342;2023-11-21T06:52:04;101083.50;;;5.90;100.00
75460;BME280;64039;53.060;9.342;2023-11-21T06:54:31;101084.28;;;5.87;100.00
75460;BME280;64039;53.060;9.342;2023-11-21T06:56:57;101084.53;;;5.74;100.00
75460;BME280;64039;53.060;9.342;2023-11-21T06:59:22;101101.66;;;5.72;100.00
75460;BME280;64039;53.060;9.342;2023-11-21T07:01:49;101102.69;;;5.75;100.00
75460;BME280;64039;53.060;9.342;2023-11-21T07:04:14;101112.41;;;5.81;100.00
75460;BME280;64039;53.060;9.342;2023-11-21T07:06:40;101117.09;;;5.90;100.00
75460;BME280;64039;53.060;9.342;2023-11-21T07:09:06;101124.78;;;5.88;100.00
75460;BME280;64039;53.060;9.342;2023-11-21T07:11:34;101128.19;;;5.87;100.00
75460;BME280;64039;53.060;9.342;2023-11-21T07:14:00;101124.63;;;5.85;100.00
75460;BME280;64039;53.060;9.342;2023-11-21T07:16:31;101133.91;;;5.80;100.00
75460;BME280;64039;53.060;9.342;2023-11-21T07:18:56;101143.41;;;5.81;100.00
75460;BME280;64039;53.060;9.342;2023-11-21T07:21:22;101145.53;;;5.90;100.00
75460;BME280;64039;53.060;9.342;2023-11-21T07:23:47;101137.66;;;5.87;100.00
75460;BME280;64039;53.060;9.342;2023-11-21T07:26:13;101144.88;;;5.94;100.00
75460;BME280;64039;53.060;9.342;2023-11-21T07:28:38;101154.69;;;6.01;100.00
75460;BME280;64039;53.060;9.342;2023-11-21T07:31:04;101157.56;;;5.89;100.00
75460;BME280;64039;53.060;9.342;2023-11-21T07:33:29;101160.56;;;5.98;100.00
75460;BME280;64039;53.060;9.342;2023-11-21T07:35:55;101155.41;;;5.98;100.00
75460;BME280;64039;53.060;9.342;2023-11-21T07:38:20;101159.78;;;6.00;100.00
75460;BME280;64039;53.060;9.342;2023-11-21T07:40:46;101157.09;;;5.98;100.00
75460;BME280;64039;53.060;9.342;2023-11-21T07:43:11;101165.22;;;6.06;100.00
75460;BME280;64039;53.060;9.342;2023-11-21T07:45:37;101166.78;;;6.02;100.00
75460;BME280;64039;53.060;9.342;2023-11-21T07:48:02;101172.09;;;6.05;100.00
75460;BME280;64039;53.060;9.342;2023-11-21T07:50:30;101181.56;;;6.05;100.00
75460;BME280;64039;53.060;9.342;2023-11-21T07:52:57;101195.13;;;6.01;100.00
75460;BME280;64039;53.060;9.342;2023-11-21T07:55:23;101195.44;;;6.07;100.00
75460;BME280;64039;53.060;9.342;2023-11-21T07:57:50;101199.16;;;6.13;100.00
75460;BME280;64039;53.060;9.342;2023-11-21T08:00:15;101195.66;;;6.11;100.00
75460;BME280;64039;53.060;9.342;2023-11-21T08:02:41;101197.47;;;6.14;100.00
75460;BME280;64039;53.060;9.342;2023-11-21T08:05:12;101200.81;;;6.11;100.00
75460;BME280;64039;53.060;9.342;2023-11-21T08:07:38;101200.66;;;6.08;100.00
75460;BME280;64039;53.060;9.342;2023-11-21T08:10:03;101198.28;;;6.13;100.00
75460;BME280;64039;53.060;9.342;2023-11-21T08:12:30;101211.38;;;6.16;100.00
75460;BME280;64039;53.060;9.342;2023-11-21T08:14:56;101216.91;;;6.25;100.00
75460;BME280;64039;53.060;9.342;2023-11-21T08:17:21;101216.53;;;6.16;100.00
75460;BME280;64039;53.060;9.342;2023-11-21T08:19:47;101217.47;;;6.18;100.00
75460;BME280;64039;53.060;9.342;2023-11-21T08:22:15;101228.75;;;6.20;100.00
75460;BME280;64039;53.060;9.342;2023-11-21T08:24:43;101234.69;;;6.18;100.00
75460;BME280;64039;53.060;9.342;2023-11-21T08:27:09;101241.16;;;6.27;100.00
75460;BME280;64039;53.060;9.342;2023-11-21T08:29:34;101237.91;;;6.32;100.00
75460;BME280;64039;53.060;9.342;2023-11-21T08:32:02;101241.47;;;6.16;100.00
75460;BME280;64039;53.060;9.342;2023-11-21T08:34:28;101235.56;;;6.18;100.00
75460;BME280;64039;53.060;9.342;2023-11-21T08:36:54;101233.13;;;6.21;100.00
75460;BME280;64039;53.060;9.342;2023-11-21T08:39:21;101247.94;;;6.25;100.00
75460;BME280;64039;53.060;9.342;2023-11-21T08:41:50;101241.63;;;6.19;100.00
75460;BME280;64039;53.060;9.342;2023-11-21T08:44:16;101252.50;;;6.31;100.00
75460;BME280;64039;53.060;9.342;2023-11-21T08:46:44;101259.25;;;6.27;100.00
75460;BME280;64039;53.060;9.342;2023-11-21T08:49:11;101264.50;;;6.29;100.00
75460;BME280;64039;53.060;9.342;2023-11-21T08:51:37;101280.75;;;6.26;100.00
75460;BME280;64039;53.060;9.342;2023-11-21T08:54:03;101282.66;;;6.31;100.00
75460;BME280;64039;53.060;9.342;2023-11-21T08:56:33;101281.03;;;6.33;100.00
75460;BME280;64039;53.060;9.342;2023-11-21T08:58:58;101298.59;;;6.40;100.00
75460;BME280;64039;53.060;9.342;2023-11-21T09:01:27;101299.16;;;6.33;100.00
75460;BME280;64039;53.060;9.342;2023-11-21T09:03:53;101304.44;;;6.36;100.00
75460;BME280;64039;53.060;9.342;2023-11-21T09:06:18;101303.78;;;6.40;100.00
75460;BME280;64039;53.060;9.342;2023-11-21T09:08:44;101308.41;;;6.47;100.00
75460;BME280;64039;53.060;9.342;2023-11-21T09:11:10;101314.66;;;6.52;100.00
75460;BME280;64039;53.060;9.342;2023-11-21T09:13:35;101316.06;;;6.26;100.00
75460;BME280;64039;53.060;9.342;2023-11-21T09:16:02;101321.59;;;6.34;100.00
75460;BME280;64039;53.060;9.342;2023-11-21T09:18:27;101328.50;;;6.53;100.00
75460;BME280;64039;53.060;9.342;2023-11-21T09:20:53;101328.13;;;6.63;100.00
75460;BME280;64039;53.060;9.342;2023-11-21T09:23:18;101332.66;;;6.69;100.00
75460;BME280;64039;53.060;9.342;2023-11-21T09:25:44;101331.09;;;6.72;100.00
75460;BME280;64039;53.060;9.342;2023-11-21T09:28:11;101333.88;;;6.77;100.00
75460;BME280;64039;53.060;9.342;2023-11-21T09:30:37;101347.75;;;6.59;100.00
75460;BME280;64039;53.060;9.342;2023-11-21T09:33:03;101347.84;;;6.61;100.00
75460;BME280;64039;53.060;9.342;2023-11-21T09:35:33;101359.66;;;6.56;100.00
75460;BME280;64039;53.060;9.342;2023-11-21T09:37:58;101363.47;;;6.64;100.00
75460;BME280;64039;53.060;9.342;2023-11-21T09:40:24;101369.41;;;6.61;100.00
75460;BME280;64039;53.060;9.342;2023-11-21T09:42:54;101372.44;;;6.71;100.00
75460;BME280;64039;53.060;9.342;2023-11-21T09:45:27;101376.84;;;6.73;100.00
75460;BME280;64039;53.060;9.342;2023-11-21T09:47:54;101382.44;;;6.83;100.00
75460;BME280;64039;53.060;9.342;2023-11-21T09:50:21;101384.50;;;6.90;100.00
75460;BME280;64039;53.060;9.342;2023-11-21T09:55:27;101382.81;;;6.90;100.00
75460;BME280;64039;53.060;9.342;2023-11-21T09:58:02;101387.16;;;6.91;100.00
75460;BME280;64039;53.060;9.342;2023-11-21T10:00:28;101385.59;;;6.95;100.00
75460;BME280;64039;53.060;9.342;2023-11-21T10:02:58;101394.41;;;6.81;100.00
75460;BME280;64039;53.060;9.342;2023-11-21T10:05:24;101392.19;;;6.88;100.00
75460;BME280;64039;53.060;9.342;2023-11-21T10:07:50;101398.44;;;6.93;100.00
75460;BME280;64039;53.060;9.342;2023-11-21T10:10:18;101392.81;;;7.02;100.00
75460;BME280;64039;53.060;9.342;2023-11-21T10:12:49;101394.81;;;7.08;100.00
75460;BME280;64039;53.060;9.342;2023-11-21T10:15:21;101388.06;;;7.12;100.00
75460;BME280;64039;53.060;9.342;2023-11-21T10:17:48;101391.78;;;7.18;100.00
75460;BME280;64039;53.060;9.342;2023-11-21T10:20:14;101397.66;;;7.14;100.00
75460;BME280;64039;53.060;9.342;2023-11-21T10:22:41;101394.81;;;7.08;100.00
75460;BME280;64039;53.060;9.342;2023-11-21T10:25:08;101405.63;;;6.99;100.00
75460;BME280;64039;53.060;9.342;2023-11-21T10:27:35;101413.16;;;6.95;100.00
75460;BME280;64039;53.060;9.342;2023-11-21T10:30:02;101412.97;;;6.90;100.00
75460;BME280;64039;53.060;9.342;2023-11-21T10:32:28;101416.94;;;7.01;100.00
75460;BME280;64039;53.060;9.342;2023-11-21T10:34:57;101416.31;;;7.07;100.00
75460;BME280;64039;53.060;9.342;2023-11-21T10:37:25;101419.91;;;6.91;100.00
75460;BME280;64039;53.060;9.342;2023-11-21T10:39:57;101418.78;;;7.04;100.00
75460;BME280;64039;53.060;9.342;2023-11-21T10:42:22;101419.03;;;6.90;100.00
75460;BME280;64039;53.060;9.342;2023-11-21T10:44:49;101421.72;;;7.12;100.00
75460;BME280;64039;53.060;9.342;2023-11-21T10:47:16;101416.31;;;7.27;100.00
75460;BME280;64039;53.060;9.342;2023-11-21T10:49:44;101418.44;;;7.35;100.00
75460;BME280;64039;53.060;9.342;2023-11-21T10:52:13;101427.03;;;7.34;100.00
75460;BME280;64039;53.060;9.342;2023-11-21T10:54:43;101426.22;;;7.35;100.00
75460;BME280;64039;53.060;9.342;2023-11-21T10:57:09;101430.50;;;7.35;100.00
75460;BME280;64039;53.060;9.342;2023-11-21T10:59:36;101429.00;;;7.40;100.00
75460;BME280;64039;53.060;9.342;2023-11-21T11:02:12;101424.69;;;7.40;100.00
75460;BME280;64039;53.060;9.342;2023-11-21T11:04:42;101423.94;;;7.43;100.00
75460;BME280;64039;53.060;9.342;2023-11-21T11:07:09;101428.59;;;7.50;100.00
75460;BME280;64039;53.060;9.342;2023-11-21T11:09:37;101439.22;;;7.57;100.00
75460;BME280;64039;53.060;9.342;2023-11-21T11:12:03;101440.09;;;7.57;100.00
75460;BME280;64039;53.060;9.342;2023-11-21T11:14:32;101434.50;;;7.48;100.00
75460;BME280;64039;53.060;9.342;2023-11-21T11:16:58;101438.81;;;7.47;100.00
75460;BME280;64039;53.060;9.342;2023-11-21T11:19:24;101435.81;;;7.38;100.00
75460;BME280;64039;53.060;9.342;2023-11-21T11:27:37;101438.00;;;7.48;100.00
75460;BME280;64039;53.060;9.342;2023-11-21T11:33:02;101454.19;;;7.44;100.00
75460;BME280;64039;53.060;9.342;2023-11-21T11:35:38;101459.19;;;7.39;100.00
75460;BME280;64039;53.060;9.342;2023-11-21T11:38:08;101456.13;;;7.29;100.00
75460;BME280;64039;53.060;9.342;2023-11-21T11:41:01;101461.72;;;7.38;100.00
75460;BME280;64039;53.060;9.342;2023-11-21T11:43:28;101463.00;;;7.48;100.00
75460;BME280;64039;53.060;9.342;2023-11-21T11:45:58;101458.31;;;7.59;100.00
75460;BME280;64039;53.060;9.342;2023-11-21T11:48:25;101464.22;;;7.56;100.00
75460;BME280;64039;53.060;9.342;2023-11-21T11:51:13;101458.47;;;7.42;100.00
75460;BME280;64039;53.060;9.342;2023-11-21T11:53:48;101465.88;;;7.34;100.00
75460;BME280;64039;53.060;9.342;2023-11-21T11:56:33;101462.25;;;7.31;100.00
75460;BME280;64039;53.060;9.342;2023-11-21T11:59:04;101466.75;;;7.35;100.00
75460;BME280;64039;53.060;9.342;2023-11-21T12:01:34;101474.31;;;7.50;100.00
75460;BME280;64039;53.060;9.342;2023-11-21T12:06:52;101462.31;;;7.32;100.00
75460;BME280;64039;53.060;9.342;2023-11-21T12:09:22;101463.28;;;7.34;100.00
75460;BME280;64039;53.060;9.342;2023-11-21T12:11:49;101461.56;;;7.15;100.00
75460;BME280;64039;53.060;9.342;2023-11-21T12:14:16;101469.66;;;6.85;100.00
75460;BME280;64039;53.060;9.342;2023-11-21T12:16:42;101477.97;;;6.96;100.00
75460;BME280;64039;53.060;9.342;2023-11-21T12:19:11;101478.03;;;6.98;100.00
75460;BME280;64039;53.060;9.342;2023-11-21T12:21:37;101487.25;;;6.92;100.00
75460;BME280;64039;53.060;9.342;2023-11-21T12:24:03;101491.72;;;6.95;100.00
75460;BME280;64039;53.060;9.342;2023-11-21T12:26:29;101495.66;;;6.87;100.00
75460;BME280;64039;53.060;9.342;2023-11-21T12:28:55;101503.69;;;6.93;100.00
75460;BME280;64039;53.060;9.342;2023-11-21T12:31:23;101510.34;;;7.06;100.00
75460;BME280;64039;53.060;9.342;2023-11-21T12:33:49;101504.84;;;7.18;100.00
75460;BME280;64039;53.060;9.342;2023-11-21T12:36:16;101514.22;;;7.34;100.00
75460;BME280;64039;53.060;9.342;2023-11-21T12:38:42;101513.06;;;7.47;100.00
75460;BME280;64039;53.060;9.342;2023-11-21T12:41:11;101520.28;;;7.54;100.00
75460;BME280;64039;53.060;9.342;2023-11-21T12:43:37;101517.66;;;7.34;100.00
75460;BME280;64039;53.060;9.342;2023-11-21T12:46:08;101521.66;;;7.46;100.00
75460;BME280;64039;53.060;9.342;2023-11-21T12:48:39;101533.25;;;7.16;100.00
75460;BME280;64039;53.060;9.342;2023-11-21T12:51:08;101537.22;;;7.28;100.00
75460;BME280;64039;53.060;9.342;2023-11-21T12:53:35;101539.13;;;7.32;100.00
75460;BME280;64039;53.060;9.342;2023-11-21T12:56:07;101536.72;;;7.17;100.00
75460;BME280;64039;53.060;9.342;2023-11-21T12:58:35;101537.09;;;7.24;100.00
75460;BME280;64039;53.060;9.342;2023-11-21T13:01:01;101541.13;;;7.19;100.00
75460;BME280;64039;53.060;9.342;2023-11-21T13:03:29;101543.16;;;7.07;100.00